Time;durP1;ratioP1;P1;durP2;ratioP2;P2;SDS_P1;SDS_P2;PMS_P1;PMS_P2;Temp;Humidity;BMP_temperature;BMP_pressure;BME280_temperature;BME280_humidity;BME280_pressure;Samples;Min_cycle;Max_cycle;Signal;HPM_P1;HPM_P2
2021/09/21 00:01:29;;;;;;;7.68;6.88;;;;;;;14.52;83.39;101175.31;4992428;28;20133;-67
2021/09/21 00:04:12;;;;;;;8.10;6.97;;;;;;;14.52;83.65;101170.81;4978626;28;20049;-67
2021/09/21 00:06:56;;;;;;;7.78;6.63;;;;;;;14.54;83.02;101170.66;4979193;28;20103;-67
2021/09/21 00:09:40;;;;;;;8.05;6.47;;;;;;;14.57;82.59;101173.06;4992900;28;20049;-67
2021/09/21 00:12:24;;;;;;;8.10;7.30;;;;;;;14.55;81.58;101173.19;4978530;28;20049;-67
2021/09/21 00:15:15;;;;;;;10.23;7.13;;;;;;;14.55;81.49;101172.34;4992275;28;20404;-65
2021/09/21 00:17:59;;;;;;;8.88;6.93;;;;;;;14.53;80.16;101182.38;4993248;28;20049;-67
2021/09/21 00:20:43;;;;;;;9.20;6.97;;;;;;;14.49;80.32;101170.25;4993221;28;20076;-67
2021/09/21 00:23:28;;;;;;;9.65;6.78;;;;;;;14.49;79.73;101178.31;4992486;28;20046;-67
2021/09/21 00:26:12;;;;;;;8.07;7.00;;;;;;;14.46;79.43;101175.91;4978736;28;20176;-67
2021/09/21 00:28:55;;;;;;;9.30;6.97;;;;;;;14.43;79.64;101173.53;4978897;28;20049;-68
2021/09/21 00:31:41;;;;;;;9.43;7.28;;;;;;;14.36;79.87;101172.41;4978671;28;20420;-67
2021/09/21 00:34:27;;;;;;;8.57;6.70;;;;;;;14.31;79.76;101177.38;4993327;28;20056;-67
2021/09/21 00:37:14;;;;;;;7.63;6.70;;;;;;;14.26;79.87;101180.50;4992234;28;20050;-67
2021/09/21 00:39:57;;;;;;;11.38;7.47;;;;;;;14.19;80.47;101191.97;4992397;28;20052;-67
2021/09/21 00:42:44;;;;;;;13.82;7.40;;;;;;;14.19;80.58;101195.47;4992213;28;20048;-67
2021/09/21 00:45:29;;;;;;;8.73;6.75;;;;;;;14.17;79.90;101194.78;4981594;28;20100;-67
2021/09/21 00:48:13;;;;;;;12.85;7.30;;;;;;;14.17;80.28;101200.13;4982043;28;20492;-67
2021/09/21 00:50:57;;;;;;;13.00;7.40;;;;;;;14.14;80.45;101191.50;4981934;28;20101;-67
2021/09/21 00:53:40;;;;;;;11.95;7.80;;;;;;;14.13;80.67;101187.13;4981727;28;20057;-68
2021/09/21 00:56:24;;;;;;;9.10;7.40;;;;;;;14.11;80.71;101184.63;4996641;28;20134;-67
2021/09/21 00:59:08;;;;;;;9.27;7.75;;;;;;;14.06;81.74;101178.00;4996551;28;20048;-66
2021/09/21 01:01:52;;;;;;;10.30;7.72;;;;;;;13.97;82.22;101181.53;4996454;28;20180;-68
2021/09/21 01:04:36;;;;;;;9.07;8.15;;;;;;;13.92;82.41;101175.75;4981786;28;20077;-67
2021/09/21 01:07:20;;;;;;;9.70;7.38;;;;;;;13.86;83.14;101187.88;4995491;28;20057;-67
2021/09/21 01:10:07;;;;;;;14.35;8.30;;;;;;;13.82;84.35;101191.00;4995356;28;20425;-67
2021/09/21 01:12:52;;;;;;;9.10;8.10;;;;;;;13.75;84.98;101196.09;4981169;28;20111;-67
2021/09/21 01:15:36;;;;;;;9.95;8.38;;;;;;;13.73;85.77;101197.22;4996248;28;20133;-67
2021/09/21 01:18:20;;;;;;;10.43;8.07;;;;;;;13.68;86.61;101189.59;4995982;28;20049;-68
2021/09/21 01:21:14;;;;;;;15.23;9.00;;;;;;;13.65;86.68;101197.09;4994875;28;20049;-67
2021/09/21 01:23:58;;;;;;;9.40;8.15;;;;;;;13.59;87.50;101193.16;4994923;28;20516;-67
2021/09/21 01:26:41;;;;;;;8.93;8.02;;;;;;;13.55;88.59;101194.41;4981624;28;20049;-67
2021/09/21 01:29:25;;;;;;;13.90;8.23;;;;;;;13.52;89.83;101191.16;4981215;28;20109;-68
2021/09/21 01:32:09;;;;;;;13.00;9.32;;;;;;;13.49;91.08;101189.63;4981247;28;20053;-67
2021/09/21 01:34:53;;;;;;;12.15;8.48;;;;;;;13.48;91.48;101208.50;4994931;28;20555;-67
2021/09/21 01:37:39;;;;;;;14.20;9.48;;;;;;;13.46;92.35;101218.50;4994938;28;20065;-67
2021/09/21 01:40:23;;;;;;;12.32;8.80;;;;;;;13.46;92.26;101216.66;4981041;28;20545;-67
2021/09/21 01:43:07;;;;;;;13.90;9.00;;;;;;;13.47;91.91;101196.09;4995836;28;20112;-67
2021/09/21 01:45:51;;;;;;;12.55;8.80;;;;;;;13.45;91.64;101176.66;4994497;28;20081;-67
2021/09/21 01:48:36;;;;;;;8.70;7.72;;;;;;;13.40;91.96;101192.28;4994705;28;20524;-67
2021/09/21 01:51:39;;;;;;;15.57;8.82;;;;;;;13.29;92.97;101197.78;4994513;28;20135;-67
2021/09/21 02:00:16;;;;;;;11.00;8.45;;;;;;;13.01;95.87;101201.22;4994625;28;20045;-67
2021/09/21 02:03:01;;;;;;;11.45;8.50;;;;;;;12.93;96.22;101212.63;4980249;28;20524;-67
2021/09/21 02:05:45;;;;;;;13.00;9.10;;;;;;;12.85;96.81;101212.41;4994324;28;20508;-67
2021/09/21 02:08:30;;;;;;;12.43;9.38;;;;;;;12.81;97.61;101212.00;4995298;28;20053;-67
2021/09/21 02:11:14;;;;;;;11.13;9.15;;;;;;;12.72;97.84;101216.31;4980442;28;20050;-67
2021/09/21 02:14:00;;;;;;;12.38;10.00;;;;;;;12.68;98.27;101212.22;4994152;28;20053;-64
2021/09/21 02:16:43;;;;;;;10.18;8.65;;;;;;;12.61;98.80;101208.38;4966660;28;20049;-67
2021/09/21 02:19:27;;;;;;;15.27;9.18;;;;;;;12.53;98.88;101208.22;4993950;28;20101;-67
2021/09/21 02:22:11;;;;;;;10.00;8.52;;;;;;;12.45;99.17;101207.19;4993894;28;20052;-67
2021/09/21 02:24:56;;;;;;;11.07;8.40;;;;;;;12.36;99.74;101203.50;4994718;28;20041;-67
2021/09/21 02:27:40;;;;;;;12.50;9.88;;;;;;;12.31;100.00;101207.53;4993672;28;20492;-67
2021/09/21 02:30:24;;;;;;;12.98;8.90;;;;;;;12.22;100.00;101209.19;4994142;28;20093;-67
2021/09/21 02:33:08;;;;;;;10.32;8.85;;;;;;;12.17;100.00;101216.75;4994081;28;20049;-66
2021/09/21 02:35:52;;;;;;;15.02;9.15;;;;;;;12.14;100.00;101213.47;4993830;28;20097;-67
2021/09/21 02:38:37;;;;;;;12.63;10.10;;;;;;;12.13;100.00;101225.16;4979828;28;20049;-67
2021/09/21 02:41:22;;;;;;;11.70;9.85;;;;;;;12.13;100.00;101231.38;4993378;28;20072;-67
2021/09/21 02:44:06;;;;;;;10.65;9.18;;;;;;;12.26;100.00;101226.66;4980139;28;20071;-67
2021/09/21 02:46:51;;;;;;;11.77;9.23;;;;;;;12.33;100.00;101230.50;4993563;28;20048;-67
2021/09/21 02:49:34;;;;;;;11.90;9.68;;;;;;;12.36;100.00;101222.22;4993561;28;20049;-67
2021/09/21 02:52:18;;;;;;;9.90;8.55;;;;;;;12.39;100.00;101226.47;4993489;28;20057;-67
2021/09/21 02:55:04;;;;;;;14.48;9.45;;;;;;;12.47;100.00;101232.81;4993371;28;20048;-67
2021/09/21 02:57:48;;;;;;;19.75;9.98;;;;;;;12.52;100.00;101238.63;4979400;28;20129;-67
2021/09/21 03:00:31;;;;;;;12.15;9.55;;;;;;;12.52;100.00;101241.31;4994091;28;20057;-67
2021/09/21 03:03:16;;;;;;;11.25;9.13;;;;;;;12.56;100.00;101240.06;4993294;28;20088;-67
2021/09/21 03:06:08;;;;;;;13.60;10.15;;;;;;;12.55;100.00;101238.34;4994366;28;20468;-67
2021/09/21 03:08:59;;;;;;;12.68;9.68;;;;;;;12.58;100.00;101240.75;4979509;28;20176;-67
2021/09/21 03:11:47;;;;;;;12.50;9.02;;;;;;;12.58;100.00;101248.78;4979332;28;20539;-67
2021/09/21 03:17:37;;;;;;;21.40;10.27;;;;;;;12.64;100.00;101258.09;4992999;28;20100;-67
2021/09/21 03:20:21;;;;;;;11.70;9.13;;;;;;;12.67;100.00;101250.66;4993785;28;20200;-67
2021/09/21 03:23:05;;;;;;;13.95;9.38;;;;;;;12.73;100.00;101268.00;4993056;28;20531;-67
2021/09/21 03:25:49;;;;;;;11.23;9.45;;;;;;;12.77;100.00;101270.28;4994090;28;20065;-67
2021/09/21 03:28:33;;;;;;;11.68;9.48;;;;;;;12.84;100.00;101264.25;4993062;28;20182;-67
2021/09/21 03:31:17;;;;;;;15.30;9.52;;;;;;;12.86;100.00;101258.78;4979167;28;20049;-67
2021/09/21 03:34:01;;;;;;;12.40;9.82;;;;;;;12.87;100.00;101266.66;4992601;28;20057;-67
2021/09/21 03:36:48;;;;;;;13.85;9.63;;;;;;;12.88;100.00;101267.50;4992944;28;20046;-67
2021/09/21 03:39:32;;;;;;;13.32;9.60;;;;;;;12.92;100.00;101268.91;4994142;28;20519;-67
2021/09/21 03:42:16;;;;;;;12.15;9.55;;;;;;;12.92;100.00;101268.91;4992462;28;20053;-67
2021/09/21 03:45:00;;;;;;;12.00;10.30;;;;;;;12.92;100.00;101266.25;4992663;28;20069;-67
2021/09/21 03:47:44;;;;;;;13.02;9.95;;;;;;;12.95;100.00;101252.66;4978960;28;20085;-67
2021/09/21 03:50:28;;;;;;;12.45;9.52;;;;;;;12.97;100.00;101251.50;4979352;28;20408;-66
2021/09/21 03:53:12;;;;;;;10.90;8.82;;;;;;;12.98;100.00;101252.38;4992474;28;20136;-67
2021/09/21 03:55:56;;;;;;;13.57;9.80;;;;;;;13.01;100.00;101257.44;4978854;28;20528;-67
2021/09/21 03:58:40;;;;;;;13.40;10.23;;;;;;;13.03;100.00;101263.50;4992824;28;20134;-67
2021/09/21 04:01:24;;;;;;;13.52;9.93;;;;;;;13.07;100.00;101256.91;4993614;28;20575;-67
2021/09/21 04:04:08;;;;;;;15.35;9.63;;;;;;;13.09;100.00;101271.00;4978930;28;20536;-67
2021/09/21 04:06:51;;;;;;;12.48;9.95;;;;;;;13.11;100.00;101271.69;4978690;28;20101;-66
2021/09/21 04:09:39;;;;;;;12.48;10.40;;;;;;;13.13;100.00;101272.41;4993379;28;20552;-67
2021/09/21 04:12:23;;;;;;;15.05;10.35;;;;;;;13.15;100.00;101275.81;4978919;28;20046;-67
2021/09/21 04:15:08;;;;;;;15.75;10.95;;;;;;;13.15;100.00;101282.00;4978496;28;20049;-67
2021/09/21 04:17:55;;;;;;;12.85;10.10;;;;;;;13.17;100.00;101285.38;4993616;28;20515;-67
2021/09/21 04:20:39;;;;;;;15.35;9.82;;;;;;;13.19;100.00;101282.59;4982429;28;20104;-68
2021/09/21 04:23:23;;;;;;;14.15;10.70;;;;;;;13.26;100.00;101297.13;4996009;28;20089;-67
2021/09/21 04:26:07;;;;;;;12.82;10.00;;;;;;;13.24;100.00;101297.25;4982451;28;20425;-67
2021/09/21 04:28:51;;;;;;;17.92;10.38;;;;;;;13.26;100.00;101303.31;4982164;28;20111;-67
2021/09/21 04:31:38;;;;;;;12.07;9.82;;;;;;;13.28;100.00;101309.38;4982081;28;20053;-67
2021/09/21 04:34:22;;;;;;;12.07;9.68;;;;;;;13.24;99.57;101318.69;4995918;28;20145;-67
2021/09/21 04:37:06;;;;;;;19.27;13.70;;;;;;;13.25;99.50;101320.38;4997292;28;20057;-67
2021/09/21 04:39:50;;;;;;;15.05;10.65;;;;;;;13.26;99.61;101315.88;4997012;28;20097;-67
2021/09/21 04:42:34;;;;;;;12.98;10.70;;;;;;;13.28;99.69;101327.28;5025304;22;20059;-65
2021/09/21 04:45:18;;;;;;;13.90;10.15;;;;;;;13.28;99.92;101327.28;5015380;28;20507;-67
2021/09/21 04:48:03;;;;;;;11.35;9.63;;;;;;;13.34;99.61;101332.13;5015390;28;20498;-67
2021/09/21 04:50:47;;;;;;;13.30;10.43;;;;;;;13.33;99.53;101341.13;5015298;28;20131;-67
2021/09/21 04:53:31;;;;;;;14.10;10.63;;;;;;;13.30;98.53;101344.94;5030736;28;20103;-67
2021/09/21 04:56:15;;;;;;;14.95;10.70;;;;;;;13.25;98.89;101354.34;5034988;28;20423;-67
2021/09/21 04:59:00;;;;;;;12.60;10.35;;;;;;;13.27;98.96;101355.91;5020876;28;20411;-67
2021/09/21 05:01:43;;;;;;;13.73;10.40;;;;;;;13.28;98.76;101351.41;5034594;28;20056;-68
2021/09/21 05:04:27;;;;;;;12.43;10.55;;;;;;;13.30;98.20;101344.94;5035592;28;20527;-67
2021/09/21 05:07:11;;;;;;;16.40;10.88;;;;;;;13.30;97.22;101344.06;5035783;28;20130;-67
2021/09/21 05:09:55;;;;;;;14.70;10.63;;;;;;;13.33;96.77;101341.13;5021029;28;20040;-67
2021/09/21 05:12:39;;;;;;;14.98;10.00;;;;;;;13.35;96.54;101341.84;5034501;28;20048;-67
2021/09/21 05:15:24;;;;;;;16.95;11.02;;;;;;;13.35;96.89;101342.69;5034714;28;20110;-67
2021/09/21 05:18:08;;;;;;;13.88;10.88;;;;;;;13.36;97.18;101349.72;5020754;28;20119;-69
2021/09/21 05:20:55;;;;;;;14.43;10.30;;;;;;;13.36;96.36;101352.41;5035021;28;20040;-67
2021/09/21 05:23:39;;;;;;;14.95;10.73;;;;;;;13.42;96.44;101354.56;5020197;28;20064;-67
2021/09/21 05:26:23;;;;;;;13.27;11.10;;;;;;;13.43;94.94;101355.38;5034429;28;20060;-67
2021/09/21 05:29:07;;;;;;;14.77;11.07;;;;;;;13.46;94.39;101363.16;5034316;28;20056;-67
2021/09/21 05:31:51;;;;;;;14.50;11.48;;;;;;;13.45;94.23;101373.03;5035298;28;20175;-67
2021/09/21 05:34:37;;;;;;;12.63;10.68;;;;;;;13.48;94.24;101370.06;5019971;28;20057;-67
2021/09/21 05:37:22;;;;;;;14.63;10.80;;;;;;;13.46;94.09;101371.22;5035226;28;20102;-68
2021/09/21 05:40:10;;;;;;;13.18;10.60;;;;;;;13.52;93.93;101376.00;5020673;28;20095;-67
2021/09/21 05:42:56;;;;;;;13.82;10.80;;;;;;;13.54;93.88;101374.03;5033769;28;20083;-68
2021/09/21 05:45:40;;;;;;;15.32;10.80;;;;;;;13.53;94.11;101383.06;5033799;28;20103;-66
2021/09/21 05:48:24;;;;;;;16.65;11.27;;;;;;;13.57;94.74;101395.22;5034423;28;20139;-67
2021/09/21 05:51:08;;;;;;;15.75;12.13;;;;;;;13.60;94.91;101394.94;5034001;28;20060;-68
2021/09/21 05:53:52;;;;;;;17.38;11.02;;;;;;;13.61;95.06;101392.13;5034785;28;20044;-66
2021/09/21 05:56:36;;;;;;;12.73;10.32;;;;;;;13.67;94.75;101396.09;5033986;28;20103;-66
2021/09/21 05:59:20;;;;;;;12.60;10.80;;;;;;;13.73;93.74;101395.53;5019832;28;20052;-67
2021/09/21 06:02:04;;;;;;;17.02;12.45;;;;;;;13.75;93.75;101402.44;5033668;28;20044;-67
2021/09/21 06:04:48;;;;;;;14.80;11.55;;;;;;;13.80;93.58;101408.25;5019525;28;20091;-67
2021/09/21 06:07:32;;;;;;;11.55;10.32;;;;;;;13.77;93.53;101418.41;5033739;28;20120;-67
2021/09/21 06:10:17;;;;;;;16.33;11.27;;;;;;;13.77;94.45;101416.56;5033389;28;20048;-67
2021/09/21 06:13:01;;;;;;;15.98;10.95;;;;;;;13.81;93.92;101419.81;5033743;28;20049;-67
2021/09/21 06:15:47;;;;;;;12.80;11.18;;;;;;;13.88;93.72;101429.00;5033562;28;20048;-67
2021/09/21 06:18:31;;;;;;;13.95;10.27;;;;;;;13.95;93.27;101427.47;5033477;28;20067;-67
2021/09/21 06:21:15;;;;;;;15.40;11.50;;;;;;;14.05;92.30;101439.03;5019458;28;20049;-67
2021/09/21 06:24:02;;;;;;;17.35;10.77;;;;;;;14.12;90.95;101443.75;5033304;28;20414;-66
2021/09/21 06:26:46;;;;;;;12.48;10.73;;;;;;;14.19;90.58;101446.75;5019059;28;20068;-67
2021/09/21 06:29:30;;;;;;;12.20;10.90;;;;;;;14.26;89.98;101454.09;5034287;28;20048;-67
2021/09/21 06:32:14;;;;;;;12.23;10.65;;;;;;;14.30;90.06;101449.31;5033207;28;20514;-66
2021/09/21 06:34:58;;;;;;;14.82;11.05;;;;;;;14.46;88.69;101468.34;5032919;28;20052;-67
2021/09/21 06:37:42;;;;;;;14.25;10.63;;;;;;;14.49;88.43;101465.41;5034106;28;20088;-67
2021/09/21 06:40:26;;;;;;;16.38;10.40;;;;;;;14.52;87.34;101481.22;5019179;28;20056;-67
2021/09/21 06:43:10;;;;;;;18.65;10.75;;;;;;;14.59;86.52;101482.38;5033191;28;20083;-67
2021/09/21 06:45:56;;;;;;;11.75;10.50;;;;;;;14.63;86.62;101490.00;5019059;28;20095;-67
2021/09/21 06:48:40;;;;;;;14.45;10.68;;;;;;;14.57;86.45;101495.09;5019368;28;20056;-67
2021/09/21 06:51:24;;;;;;;13.60;10.88;;;;;;;14.58;85.79;101494.94;5018801;28;20056;-66
2021/09/21 06:54:08;;;;;;;14.02;10.90;;;;;;;14.65;85.06;101497.91;5018827;28;20099;-67
2021/09/21 06:56:52;;;;;;;12.32;11.02;;;;;;;14.71;85.63;101502.72;5018576;28;20053;-67
2021/09/21 06:59:36;;;;;;;13.50;10.68;;;;;;;14.79;85.05;101508.22;5018554;28;20423;-67
2021/09/21 07:02:20;;;;;;;13.05;10.60;;;;;;;14.85;84.31;101504.97;5018410;28;20053;-67
2021/09/21 07:05:04;;;;;;;12.60;10.07;;;;;;;14.73;83.58;101506.97;5018740;28;20408;-67
2021/09/21 07:07:50;;;;;;;16.80;10.90;;;;;;;14.73;83.74;101516.84;5018892;28;20129;-67
2021/09/21 07:10:34;;;;;;;13.75;11.00;;;;;;;14.85;83.05;101527.31;5018375;28;20095;-67
2021/09/21 07:13:18;;;;;;;12.93;10.20;;;;;;;14.98;82.90;101524.34;5018461;28;20140;-66
2021/09/21 07:16:03;;;;;;;16.55;10.73;;;;;;;15.06;82.15;101521.78;5004449;28;20531;-67
2021/09/21 07:18:47;;;;;;;14.35;10.73;;;;;;;15.16;82.13;101519.91;5018445;28;20565;-67
2021/09/21 07:21:31;;;;;;;14.77;10.30;;;;;;;15.28;82.12;101524.13;5018474;28;20052;-67
2021/09/21 07:24:16;;;;;;;12.65;10.23;;;;;;;15.40;81.29;101528.41;5033455;28;20502;-67
2021/09/21 07:27:00;;;;;;;14.57;10.43;;;;;;;15.40;80.99;101536.47;5018341;28;20085;-67
2021/09/21 07:29:44;;;;;;;12.63;10.73;;;;;;;15.57;80.53;101537.41;5004469;28;20463;-66
2021/09/21 07:32:28;;;;;;;;;;;;;;;15.74;78.60;101538.50;5033549;28;20533;-66
2021/09/21 07:35:12;;;;;;;15.77;10.73;;;;;;;15.68;78.00;101539.91;5032823;28;20412;-67
2021/09/21 07:37:56;;;;;;;11.75;10.02;;;;;;;15.83;77.24;101532.22;5018316;28;20049;-67
2021/09/21 07:40:41;;;;;;;15.73;10.35;;;;;;;15.89;76.20;101531.66;5004377;28;20506;-67
2021/09/21 07:43:24;;;;;;;13.13;9.90;;;;;;;16.09;74.66;101534.09;5026526;28;20099;-67
2021/09/21 07:46:08;;;;;;;12.75;9.52;;;;;;;16.29;74.18;101538.38;5017923;28;20067;-67
2021/09/21 07:48:52;;;;;;;15.02;10.25;;;;;;;16.52;73.46;101534.31;5032048;28;20072;-67
2021/09/21 07:51:36;;;;;;;12.35;10.27;;;;;;;16.68;71.00;101542.56;5032332;28;20075;-67
2021/09/21 07:54:20;;;;;;;16.83;9.77;;;;;;;16.47;71.82;101539.28;5021676;28;20052;-67
2021/09/21 07:57:04;;;;;;;12.82;9.35;;;;;;;16.66;71.45;101541.88;5036179;28;20056;-67
2021/09/21 07:59:48;;;;;;;12.13;9.25;;;;;;;16.79;70.50;101530.72;5022123;28;20055;-67
2021/09/21 08:02:32;;;;;;;15.75;10.05;;;;;;;17.05;69.35;101523.53;5035958;28;20044;-67
2021/09/21 08:05:16;;;;;;;10.55;9.32;;;;;;;17.35;68.62;101526.69;5035990;28;20087;-67
2021/09/21 08:08:02;;;;;;;13.35;9.43;;;;;;;17.74;66.73;101530.66;5035663;28;20053;-66
2021/09/21 08:10:46;;;;;;;12.00;8.73;;;;;;;17.97;64.36;101534.50;5021632;28;20111;-67
2021/09/21 08:13:30;;;;;;;11.35;8.98;;;;;;;18.26;61.62;101550.31;5021734;28;20049;-67
2021/09/21 08:16:14;;;;;;;10.48;8.35;;;;;;;18.43;60.98;101542.13;5036511;28;20044;-66
2021/09/21 08:18:58;;;;;;;10.32;8.32;;;;;;;18.40;57.05;101542.47;5035553;28;20056;-67
2021/09/21 08:21:42;;;;;;;9.27;7.78;;;;;;;18.64;57.70;101556.03;5035329;28;20107;-67
2021/09/21 08:24:26;;;;;;;10.45;7.85;;;;;;;18.54;56.97;101566.13;5036867;28;20063;-67
2021/09/21 08:27:12;;;;;;;8.65;7.78;;;;;;;18.83;55.64;101566.53;5021543;28;20048;-67
2021/09/21 08:29:56;;;;;;;9.25;8.07;;;;;;;18.94;53.89;101580.59;5035561;28;20136;-67
2021/09/21 08:32:40;;;;;;;8.93;8.02;;;;;;;18.74;54.57;101570.22;5036394;28;20055;-67
2021/09/21 08:35:27;;;;;;;10.32;7.53;;;;;;;18.97;53.31;101571.31;5036363;28;20125;-67
2021/09/21 08:38:12;;;;;;;11.43;7.65;;;;;;;18.83;53.13;101577.34;5036099;28;20128;-67
2021/09/21 08:40:56;;;;;;;7.80;7.00;;;;;;;18.77;52.34;101578.03;5035185;28;20045;-67
2021/09/21 08:43:40;;;;;;;9.38;8.25;;;;;;;18.76;53.52;101587.16;5034755;28;20171;-67
2021/09/21 08:46:24;;;;;;;14.48;7.85;;;;;;;18.84;52.52;101596.09;5034954;28;20048;-67
2021/09/21 08:49:07;;;;;;;9.88;7.38;;;;;;;18.77;52.75;101588.84;5035227;28;20052;-67
2021/09/21 08:51:51;;;;;;;9.07;6.88;;;;;;;18.87;52.40;101594.94;5021112;28;20415;-68
2021/09/21 08:54:35;;;;;;;7.95;7.15;;;;;;;19.12;53.23;101593.94;5035863;28;20072;-67
2021/09/21 08:57:19;;;;;;;;;;;;;;;19.50;51.02;101602.28;5021200;28;20040;-67
2021/09/21 09:00:05;;;;;;;8.53;7.37;;;;;;;19.81;51.38;101602.44;5035035;28;19924;-67
2021/09/21 09:02:50;;;;;;;10.65;7.43;;;;;;;20.15;49.70;101601.22;5035679;28;20186;-67
2021/09/21 09:05:44;;;;;;;7.93;6.63;;;;;;;20.40;49.42;101593.84;5033938;28;20117;-67
2021/09/21 09:08:32;;;;;;;9.20;7.37;;;;;;;20.45;49.04;101597.72;5020817;28;20052;-67
2021/09/21 09:11:26;;;;;;;9.57;7.28;;;;;;;20.82;46.05;101599.72;5034845;28;20049;-67
2021/09/21 09:14:21;;;;;;;7.10;6.40;;;;;;;21.29;45.68;101602.13;5035748;28;20088;-67
2021/09/21 09:17:07;;;;;;;8.45;6.55;;;;;;;21.40;44.13;101601.69;5034594;28;20048;-68
2021/09/21 09:19:51;;;;;;;8.75;6.40;;;;;;;21.85;42.52;101585.38;5035532;28;20071;-67
2021/09/21 09:22:35;;;;;;;8.38;6.82;;;;;;;22.07;42.96;101589.03;5034172;28;20052;-67
2021/09/21 09:25:19;;;;;;;10.23;6.30;;;;;;;21.97;42.39;101589.31;5034251;28;20144;-68
2021/09/21 09:28:03;;;;;;;;;;;;;;;22.50;40.96;101590.94;5034937;28;20060;-67
2021/09/21 09:30:47;;;;;;;10.32;5.93;;;;;;;23.90;37.83;101593.69;5035410;28;19920;-68
2021/09/21 09:33:33;;;;;;;9.52;6.60;;;;;;;25.92;33.82;101584.34;5034165;28;20084;-67
2021/09/21 09:36:22;;;;;;;6.60;5.90;;;;;;;28.27;30.81;101582.72;5020811;28;20052;-67
2021/09/21 09:39:07;;;;;;;6.55;5.10;;;;;;;30.30;28.15;101586.66;5033968;28;20511;-68
2021/09/21 09:41:53;;;;;;;6.45;5.18;;;;;;;31.93;24.31;101596.72;5033966;28;20064;-68
2021/09/21 09:44:37;;;;;;;8.82;5.60;;;;;;;32.23;24.77;101600.84;5020348;28;20124;-68
2021/09/21 09:47:21;;;;;;;5.80;5.30;;;;;;;32.89;23.26;101608.09;5019957;28;20436;-68
2021/09/21 09:50:10;;;;;;;7.03;5.78;;;;;;;33.02;22.99;101604.91;5019971;28;20057;-68
2021/09/21 09:53:07;;;;;;;7.30;5.40;;;;;;;34.06;21.19;101613.41;5020263;28;20511;-68
2021/09/21 09:55:57;;;;;;;6.15;5.55;;;;;;;34.48;21.30;101608.72;5019742;28;20064;-68
2021/09/21 09:58:40;;;;;;;5.82;5.32;;;;;;;34.82;20.72;101612.75;5019614;28;20056;-68
2021/09/21 10:01:25;;;;;;;7.10;5.35;;;;;;;34.87;20.59;101619.16;5019436;28;20052;-67
2021/09/21 10:04:11;;;;;;;7.40;5.60;;;;;;;35.66;20.16;101626.03;5019539;28;20056;-68
2021/09/21 10:06:56;;;;;;;7.72;6.07;;;;;;;35.26;19.97;101622.34;5005885;28;20056;-68
2021/09/21 10:09:41;;;;;;;6.20;5.63;;;;;;;36.14;20.09;101639.38;5005797;28;20472;-68
2021/09/21 10:12:26;;;;;;;6.00;5.40;;;;;;;36.37;19.55;101634.03;5005341;28;20414;-68
2021/09/21 10:15:10;;;;;;;9.38;5.78;;;;;;;36.04;19.77;101633.81;5019562;28;20103;-68
2021/09/21 10:17:56;;;;;;;7.18;5.53;;;;;;;36.40;19.30;101621.53;5018744;28;20420;-67
2021/09/21 10:20:41;;;;;;;5.93;5.32;;;;;;;36.73;19.68;101620.88;5019509;28;20079;-68
2021/09/21 10:23:42;;;;;;;6.15;5.65;;;;;;;37.88;18.04;101622.97;5034123;28;20045;-69
2021/09/21 10:26:26;;;;;;;6.07;5.53;;;;;;;37.60;18.39;101632.13;5034634;28;20139;-69
2021/09/21 10:29:10;;;;;;;6.97;6.38;;;;;;;37.40;18.15;101621.91;5033972;28;20067;-67
2021/09/21 10:31:56;;;;;;;8.30;5.82;;;;;;;38.55;16.97;101631.22;5019231;28;20463;-68
2021/09/21 10:34:42;;;;;;;9.15;5.93;;;;;;;37.35;18.26;101618.34;5034119;28;20048;-68
2021/09/21 10:37:31;;;;;;;5.85;5.20;;;;;;;37.68;18.36;101618.41;5019232;28;20579;-68
2021/09/21 10:40:14;;;;;;;7.30;6.00;;;;;;;37.70;18.29;101620.91;5018988;28;20076;-68
2021/09/21 10:42:58;;;;;;;6.82;6.13;;;;;;;37.87;17.54;101616.56;5023847;28;20108;-68
2021/09/21 10:45:42;;;;;;;6.70;6.07;;;;;;;38.51;17.07;101621.81;5096059;23;20063;-70
2021/09/21 10:48:35;;;;;;;6.70;6.07;;;;;;;38.43;16.67;101616.88;5070743;28;20856;-71
2021/09/21 10:51:22;;;;;;;8.25;5.28;;;;;;;37.71;17.69;101622.56;5056005;28;20043;-70
2021/09/21 10:54:06;;;;;;;6.80;6.18;;;;;;;35.39;19.14;101625.41;5069711;28;20513;-71
2021/09/21 10:56:50;;;;;;;7.63;5.70;;;;;;;33.64;20.47;101618.84;5069642;28;20044;-70
2021/09/21 10:59:34;;;;;;;7.20;6.05;;;;;;;31.88;22.36;101613.22;5070667;28;20109;-70
2021/09/21 11:02:19;;;;;;;7.50;4.93;;;;;;;32.46;22.32;101616.34;5069366;28;20465;-71
2021/09/21 11:05:06;;;;;;;6.00;5.50;;;;;;;34.28;20.80;101606.66;5055149;28;20155;-70
2021/09/21 11:07:54;;;;;;;7.28;5.60;;;;;;;35.43;19.66;101604.38;5069220;28;20102;-70
2021/09/21 11:10:44;;;;;;;6.07;5.57;;;;;;;37.18;17.60;101604.00;5070673;28;20139;-71
2021/09/21 11:13:36;;;;;;;8.55;6.10;;;;;;;38.48;16.65;101611.25;5069308;28;20044;-71
2021/09/21 11:16:25;;;;;;;9.48;5.50;;;;;;;39.06;16.48;101607.16;5068950;28;20063;-71
2021/09/21 11:19:10;;;;;;;9.30;6.05;;;;;;;39.93;16.00;101605.25;5069288;28;20079;-70
2021/09/21 11:22:08;;;;;;;6.18;5.60;;;;;;;39.59;15.56;101610.25;5070114;28;20091;-70
2021/09/21 11:24:58;;;;;;;6.43;5.20;;;;;;;39.94;15.49;101595.72;5069709;28;20047;-70
2021/09/21 11:27:43;;;;;;;6.85;5.55;;;;;;;40.04;14.84;101591.91;5068690;28;20094;-70
2021/09/21 11:30:26;;;;;;;5.65;5.10;;;;;;;40.50;14.83;101596.34;5069967;28;20056;-70
2021/09/21 11:33:19;;;;;;;7.95;7.25;;;;;;;39.37;15.31;101591.66;5070008;28;20051;-70
2021/09/21 11:36:08;;;;;;;6.72;5.82;;;;;;;39.52;15.73;101595.03;5068511;28;20063;-70
2021/09/21 11:38:53;;;;;;;7.13;6.20;;;;;;;39.98;14.67;101587.56;5054684;28;20044;-70
2021/09/21 11:41:37;;;;;;;7.15;5.18;;;;;;;40.75;14.64;101587.44;5069418;28;20047;-70
2021/09/21 11:44:21;;;;;;;6.00;5.50;;;;;;;41.15;15.04;101575.34;5054665;28;20563;-70
2021/09/21 11:47:05;;;;;;;8.07;6.15;;;;;;;39.93;15.75;101580.09;5068313;28;20039;-70
2021/09/21 11:49:54;;;;;;;7.28;6.13;;;;;;;40.65;15.01;101587.66;5068609;28;20085;-70
2021/09/21 11:52:40;;;;;;;7.10;6.40;;;;;;;40.60;14.76;101584.13;5068367;28;20101;-70
2021/09/21 11:55:27;;;;;;;7.53;6.55;;;;;;;41.03;14.57;101589.03;5054641;28;20047;-70
2021/09/21 11:58:14;;;;;;;6.60;5.88;;;;;;;40.41;14.71;101598.16;5064560;28;20458;-70
2021/09/21 12:01:00;;;;;;;6.88;5.60;;;;;;;40.57;14.87;101587.53;5055946;28;20118;-70
2021/09/21 12:03:44;;;;;;;6.70;6.00;;;;;;;40.62;14.86;101584.66;5056064;28;20174;-71
2021/09/21 12:06:33;;;;;;;7.43;5.97;;;;;;;38.91;16.30;101576.72;5054988;28;20112;-71
2021/09/21 12:09:18;;;;;;;7.65;5.10;;;;;;;39.80;15.56;101578.09;5055107;28;20056;-70
2021/09/21 12:12:12;;;;;;;8.90;5.75;;;;;;;39.72;16.08;101583.56;5054961;28;20079;-71
2021/09/21 12:15:02;;;;;;;7.60;5.90;;;;;;;39.35;15.92;101582.75;5054771;28;20047;-70
2021/09/21 12:17:46;;;;;;;12.43;6.07;;;;;;;39.68;15.88;101583.34;5040725;28;20106;-71
2021/09/21 12:20:32;;;;;;;9.07;5.68;;;;;;;39.42;16.08;101584.03;5055819;28;20186;-70
2021/09/21 12:23:16;;;;;;;7.68;5.13;;;;;;;39.85;15.74;101589.19;5054812;28;20052;-69
2021/09/21 12:26:02;;;;;;;6.50;5.80;;;;;;;39.69;15.90;101587.78;5055570;28;20099;-70
2021/09/21 12:28:49;;;;;;;6.45;5.72;;;;;;;39.28;15.82;101587.88;5054429;28;20036;-71
2021/09/21 12:31:35;;;;;;;7.93;5.95;;;;;;;39.04;16.23;101587.13;5054595;28;20410;-70
2021/09/21 12:34:19;;;;;;;7.45;5.50;;;;;;;39.00;16.33;101588.84;5040040;28;20421;-70
2021/09/21 12:37:03;;;;;;;6.13;5.60;;;;;;;37.61;17.22;101584.50;5054270;28;20047;-69
2021/09/21 12:39:47;;;;;;;10.77;6.38;;;;;;;38.06;16.91;101583.25;5055720;28;20071;-70
2021/09/21 12:42:31;;;;;;;6.38;5.78;;;;;;;37.93;16.78;101582.03;5055453;28;20098;-70
2021/09/21 12:45:15;;;;;;;6.70;6.10;;;;;;;37.16;18.11;101576.47;5054095;28;20043;-70
2021/09/21 12:48:00;;;;;;;6.53;5.10;;;;;;;36.79;18.48;101586.41;5055148;28;20098;-70